Saint Martinville, Louisiana
Current Conditions -  °F | °C
As of 10:53 AM on Tuesday 21 Oct 2014 (Local Time) from KARA Reporting Station
Clear Clear  
Wind Chill: 75°   Ceiling: Unl
Heat Index: 75°   Visibility: 10mi
Dew Point: 56°   Wind: 8mph
Humidity: 51%   Direction: 50°NE
Pressure: 30.08"   Gusts: NA
Location:  30.13°N, 91.83°W
Report Text: KARA 211553Z 05007KT 10SM CLR 24/13 A3008 RMK AO2 SLP184 T02390133
Loading
Personal Weather Stations






























Interactive Weather Map
Tropical Storm Tracking
New forecast layout! Learn more

10-Day Weather Forecast

Advertisements
Track Severe Weather on mobile